Terminal Aerodrome Forecast
Issued by NWS

Home | Current Version | Previous Version | Text Only | Print | Product List | Glossary On
Versions: 1 2 3 4 5 6 7 8 9 10 11 12 13 14 15 16 17 18 19
914
FTUS41 KCAR 161127
TAFFVE
TAF
KFVE 161127Z 1612/1712 15004KT P6SM OVC070
     FM161400 20008KT 6SM -SN OVC050
     FM161800 23011KT 1SM -SN BR OVC008
     FM162100 25010KT P6SM BKN025
     FM162300 27009KT P6SM BKN045
     FM170700 31009KT P6SM SCT080=

USA.gov is the U.S. government's official web portal to all federal, state and local government web resources and services.